ZSSS/SHA METAR and TAF weather

Enter ICAO airport designator
Station Type Date Time Source
ZSSS METAR 2018/12/17 03:30 UTC NOAA

ZSSS 170330Z 27005MPS 230V310 7000 NSC 11/01 Q1025 NOSIG


Station Type Date Time Source
ZSSS Decoded METAR 2018/12/17 03:30 UTC NOAA

Shanghai / Hongqiao, China (ZSSS) 31-10N 121-26E 3M
Dec 16, 2018 - 10:30 PM EST / 2018.12.17 0330 UTC
Wind: from the W (270 degrees) at 11 MPH (10 KT) (direction variable):0
Visibility: 4 mile(s):0
Temperature: 51 F (11 C)
Dew Point: 33 F (1 C)
Relative Humidity: 50%
Pressure (altimeter): 30.27 in. Hg (1025 hPa)
ob: ZSSS 170330Z 27005MPS 230V310 7000 NSC 11/01 Q1025 NOSIG
cycle: 3

Station Type Date Time Source
ZSSS TAF 2018/12/16 18:03 UTC NOAA

TAF ZSSS 161511Z 1618/1718 29004MPS 5000 HZ BKN030 TX11/1706Z TN03/1621Z


Example: see airport list